Trenton, NJ

4:13 PM EDT on September 02, 2014 (GMT -0400)
McGuire Air Force Base | Change Station
CLOSE
Current Station
Airport
Location: McGuire AFB,
Elevation: 135 ft
Nearby Weather Stations
Active Advisory: Air Quality Alert

Elev 135 ft 40.02 °N, 74.59 °W | Updated 15 minutes ago

Partly Cloudy
Partly Cloudy
91 °F
Feels Like 99 °F
N
12
Wind Variable Wind from WSW
Gusts 21 mph

Today
High -- | Low -- °F
--% Chance of Precip.
Yesterday
High -- | Low -- °F
Precip. -- in
6:27 AM 7:29 PM
First Quarter, 54% visible
Pressure 29.85 in
Visibility 10.0 miles
Clouds Few 4900 ft
Heat Index 99 °F
Dew Point 72 °F
Humidity 55%
Rainfall 0.00 in
Snow Depth Not available.
UV 4 out of 12
Pollen 8.60 out of 12
Ozone Good
PM2.5 Moderate
Flu Activity Not available.
METAR KWRI 021958Z AUTO 25010G18KT 10SM FEW049 33/23 A2984 RMK AO2 SLP107 T03270225

More Conditions Fewer Conditions

Pressure 29.85 in
Visibility 10.0 miles
Clouds Few 4900 ft
Heat Index 99 °F
Dew Point 72 °F
Humidity 55%
Rainfall 0.00 in
Snow Depth Not available.
UV 4 out of 12
Pollen 8.60 out of 12
Ozone Good
PM2.5 Moderate
Flu Activity Not available.
METAR KWRI 021958Z AUTO 25010G18KT 10SM FEW049 33/23 A2984 RMK AO2 SLP107 T03270225

More Conditions Fewer Conditions

10-Day Weather Forecast

Almanac

Astronomy

Sep. 02, 2014 Rise Set
Actual Time 6:27 AM EDT 7:29 PM EDT
Civil Twilight 5:59 AM EDT 7:56 PM EDT
Nautical Twilight 5:26 AM EDT 8:29 PM EDT
Astronomical Twilight 4:51 AM EDT 9:04 PM EDT
Moon 2:09 PM EDT No Moon Set
Length of Visible Light 13h 57m
Length of Day
13h 01m
Tomorrow will be 2m 33s shorter.
First Quarter, 54% of the Moon is Illuminated
Today
First Quarter
Sep 8
Full
Sep 15
Last Quarter
Sep 24
New
Oct 1
First Quarter

Today's Extremes

State Highs State Lows

Community

WunderPhotos

Upload Photos

1,749,752 photos uploaded!

WunderBlogs® & News

By Dr. Jeff Masters
Director of Meteorology, Weather Underground
By Kari Strenfel
Meteorologist, Weather Underground
By Christopher C. Burt
Weather Historian, Weather Underground
September 2, 2014
September 2, 2014
September 2, 2014

Nearby

Air Quality

  Air Quality AQ Index Pollutant
Yesterday Good
PM2.5
Yesterday Good
OZONE
Current Moderate
PM2.5
Current Good
OZONE
Tuesday Moderate
OZONE
Tuesday Moderate
PM2.5
Wednesday Moderate
OZONE
Wednesday Good
PM2.5
Thursday Moderate
OZONE
Thursday Moderate
PM2.5
Friday Moderate
OZONE
Friday Moderate
PM2.5

Snow Depth

Station Depth Elevation
No new snow has been reported.

Earthquake Activity

City Distance Mag. Time & Date
No recent earthquake activity has been reported nearby.
Minimum magnitude displayed is 2.5.

Coastal Water Temperatures

Place Temperature
No Stations Reporting

Nearby Weather Stations